sensor_id;sensor_type;location;lat;lon;timestamp;temperature;humidity
5881;DHT22;2966;52.598;10.928;2023-03-14T00:00:23;10.40;99.90
5881;DHT22;2966;52.598;10.928;2023-03-14T00:02:52;10.40;99.90
5881;DHT22;2966;52.598;10.928;2023-03-14T00:05:19;10.40;99.90
5881;DHT22;2966;52.598;10.928;2023-03-14T00:07:48;10.40;99.90
5881;DHT22;2966;52.598;10.928;2023-03-14T00:10:15;10.50;99.90
5881;DHT22;2966;52.598;10.928;2023-03-14T00:12:44;10.50;99.90
5881;DHT22;2966;52.598;10.928;2023-03-14T00:15:12;10.40;99.90
5881;DHT22;2966;52.598;10.928;2023-03-14T00:17:39;10.50;99.90
5881;DHT22;2966;52.598;10.928;2023-03-14T00:20:09;10.40;99.90
5881;DHT22;2966;52.598;10.928;2023-03-14T00:22:37;10.40;99.90
5881;DHT22;2966;52.598;10.928;2023-03-14T00:25:07;10.40;99.90
5881;DHT22;2966;52.598;10.928;2023-03-14T00:27:34;10.30;99.90
5881;DHT22;2966;52.598;10.928;2023-03-14T00:30:01;10.20;99.90
5881;DHT22;2966;52.598;10.928;2023-03-14T00:32:28;10.10;99.90
5881;DHT22;2966;52.598;10.928;2023-03-14T00:34:56;10.10;99.90
5881;DHT22;2966;52.598;10.928;2023-03-14T00:37:25;10.10;99.90
5881;DHT22;2966;52.598;10.928;2023-03-14T00:39:52;10.00;99.90
5881;DHT22;2966;52.598;10.928;2023-03-14T00:42:20;10.00;99.90
5881;DHT22;2966;52.598;10.928;2023-03-14T00:44:47;9.80;99.90
5881;DHT22;2966;52.598;10.928;2023-03-14T00:47:13;9.80;99.90
5881;DHT22;2966;52.598;10.928;2023-03-14T00:49:40;9.70;99.90
5881;DHT22;2966;52.598;10.928;2023-03-14T00:52:08;9.70;99.90
5881;DHT22;2966;52.598;10.928;2023-03-14T00:54:35;9.80;99.90
5881;DHT22;2966;52.598;10.928;2023-03-14T00:57:02;9.80;99.90
5881;DHT22;2966;52.598;10.928;2023-03-14T00:59:30;10.00;99.90
5881;DHT22;2966;52.598;10.928;2023-03-14T01:01:57;10.00;99.90
5881;DHT22;2966;52.598;10.928;2023-03-14T01:04:23;10.10;99.90
5881;DHT22;2966;52.598;10.928;2023-03-14T01:06:50;10.00;99.90
5881;DHT22;2966;52.598;10.928;2023-03-14T01:09:17;10.00;99.90
5881;DHT22;2966;52.598;10.928;2023-03-14T01:11:44;10.00;99.90
5881;DHT22;2966;52.598;10.928;2023-03-14T01:14:12;10.00;99.90
5881;DHT22;2966;52.598;10.928;2023-03-14T01:16:40;10.20;99.90
5881;DHT22;2966;52.598;10.928;2023-03-14T01:19:07;10.20;99.90
5881;DHT22;2966;52.598;10.928;2023-03-14T01:21:34;10.10;99.90
5881;DHT22;2966;52.598;10.928;2023-03-14T01:24:04;10.20;99.90
5881;DHT22;2966;52.598;10.928;2023-03-14T01:26:33;10.10;99.90
5881;DHT22;2966;52.598;10.928;2023-03-14T01:29:00;10.10;99.90
5881;DHT22;2966;52.598;10.928;2023-03-14T01:31:27;10.20;99.90
5881;DHT22;2966;52.598;10.928;2023-03-14T01:33:55;10.20;99.90
5881;DHT22;2966;52.598;10.928;2023-03-14T01:36:22;10.20;99.90
5881;DHT22;2966;52.598;10.928;2023-03-14T01:38:49;10.30;99.90
5881;DHT22;2966;52.598;10.928;2023-03-14T01:41:17;10.20;99.90
5881;DHT22;2966;52.598;10.928;2023-03-14T01:43:45;10.20;99.90
5881;DHT22;2966;52.598;10.928;2023-03-14T01:46:20;10.20;99.90
5881;DHT22;2966;52.598;10.928;2023-03-14T01:48:52;10.20;99.90
5881;DHT22;2966;52.598;10.928;2023-03-14T01:51:25;10.20;99.90
5881;DHT22;2966;52.598;10.928;2023-03-14T01:54:02;10.20;99.90
5881;DHT22;2966;52.598;10.928;2023-03-14T01:56:31;10.20;99.90
5881;DHT22;2966;52.598;10.928;2023-03-14T01:58:59;10.30;99.90
5881;DHT22;2966;52.598;10.928;2023-03-14T02:01:28;10.30;99.90
5881;DHT22;2966;52.598;10.928;2023-03-14T02:03:56;10.30;99.90
5881;DHT22;2966;52.598;10.928;2023-03-14T02:06:29;10.30;99.90
5881;DHT22;2966;52.598;10.928;2023-03-14T02:08:59;10.30;99.90
5881;DHT22;2966;52.598;10.928;2023-03-14T02:11:29;10.40;99.90
5881;DHT22;2966;52.598;10.928;2023-03-14T02:13:57;10.40;99.90
5881;DHT22;2966;52.598;10.928;2023-03-14T02:16:25;10.50;99.90
5881;DHT22;2966;52.598;10.928;2023-03-14T02:18:52;10.40;99.90
5881;DHT22;2966;52.598;10.928;2023-03-14T02:21:23;10.60;99.90
5881;DHT22;2966;52.598;10.928;2023-03-14T02:24:02;10.60;99.90
5881;DHT22;2966;52.598;10.928;2023-03-14T02:26:38;10.60;99.90
5881;DHT22;2966;52.598;10.928;2023-03-14T02:29:06;10.70;99.90
5881;DHT22;2966;52.598;10.928;2023-03-14T02:31:33;10.60;99.90
5881;DHT22;2966;52.598;10.928;2023-03-14T02:34:01;10.50;99.90
5881;DHT22;2966;52.598;10.928;2023-03-14T02:36:30;10.50;99.90
5881;DHT22;2966;52.598;10.928;2023-03-14T02:39:03;10.50;99.90
5881;DHT22;2966;52.598;10.928;2023-03-14T02:41:32;10.50;99.90
5881;DHT22;2966;52.598;10.928;2023-03-14T02:43:59;10.50;99.90
5881;DHT22;2966;52.598;10.928;2023-03-14T02:46:27;10.50;99.90
5881;DHT22;2966;52.598;10.928;2023-03-14T02:48:57;10.60;99.90
5881;DHT22;2966;52.598;10.928;2023-03-14T02:51:26;10.60;99.90
5881;DHT22;2966;52.598;10.928;2023-03-14T02:53:53;10.70;99.90
5881;DHT22;2966;52.598;10.928;2023-03-14T02:56:19;10.70;99.90
5881;DHT22;2966;52.598;10.928;2023-03-14T02:58:46;10.70;99.90
5881;DHT22;2966;52.598;10.928;2023-03-14T03:01:16;10.60;99.90
5881;DHT22;2966;52.598;10.928;2023-03-14T03:03:44;10.60;99.90
5881;DHT22;2966;52.598;10.928;2023-03-14T03:06:10;10.60;99.90
5881;DHT22;2966;52.598;10.928;2023-03-14T03:08:37;10.50;99.90
5881;DHT22;2966;52.598;10.928;2023-03-14T03:11:05;10.50;99.90
5881;DHT22;2966;52.598;10.928;2023-03-14T03:13:32;10.50;99.90
5881;DHT22;2966;52.598;10.928;2023-03-14T03:15:58;10.50;99.90
5881;DHT22;2966;52.598;10.928;2023-03-14T03:18:25;10.50;99.90
5881;DHT22;2966;52.598;10.928;2023-03-14T03:20:53;10.50;99.90
5881;DHT22;2966;52.598;10.928;2023-03-14T03:23:20;10.50;99.90
5881;DHT22;2966;52.598;10.928;2023-03-14T03:25:50;10.40;99.90
5881;DHT22;2966;52.598;10.928;2023-03-14T03:28:17;10.40;99.90
5881;DHT22;2966;52.598;10.928;2023-03-14T03:30:44;10.50;99.90
5881;DHT22;2966;52.598;10.928;2023-03-14T03:33:11;10.40;99.90
5881;DHT22;2966;52.598;10.928;2023-03-14T03:35:49;10.40;99.90
5881;DHT22;2966;52.598;10.928;2023-03-14T03:38:17;10.40;99.90
5881;DHT22;2966;52.598;10.928;2023-03-14T03:40:45;10.40;99.90
5881;DHT22;2966;52.598;10.928;2023-03-14T03:43:12;10.50;99.90
5881;DHT22;2966;52.598;10.928;2023-03-14T03:45:40;10.50;99.90
5881;DHT22;2966;52.598;10.928;2023-03-14T03:48:07;10.40;99.90
5881;DHT22;2966;52.598;10.928;2023-03-14T03:50:34;10.40;99.90
5881;DHT22;2966;52.598;10.928;2023-03-14T03:53:01;10.40;99.90
5881;DHT22;2966;52.598;10.928;2023-03-14T03:55:30;10.30;99.90
5881;DHT22;2966;52.598;10.928;2023-03-14T03:57:57;10.20;99.90
5881;DHT22;2966;52.598;10.928;2023-03-14T04:00:24;10.20;99.90
5881;DHT22;2966;52.598;10.928;2023-03-14T04:02:50;10.20;99.90
5881;DHT22;2966;52.598;10.928;2023-03-14T04:05:17;10.10;99.90
5881;DHT22;2966;52.598;10.928;2023-03-14T04:07:44;10.10;99.90
5881;DHT22;2966;52.598;10.928;2023-03-14T04:10:10;10.10;99.90
5881;DHT22;2966;52.598;10.928;2023-03-14T04:12:38;10.10;99.90
5881;DHT22;2966;52.598;10.928;2023-03-14T04:15:06;10.10;99.90
5881;DHT22;2966;52.598;10.928;2023-03-14T04:17:33;10.10;99.90
5881;DHT22;2966;52.598;10.928;2023-03-14T04:20:00;10.10;99.90
5881;DHT22;2966;52.598;10.928;2023-03-14T04:22:27;10.10;99.90
5881;DHT22;2966;52.598;10.928;2023-03-14T04:24:54;10.10;99.90
5881;DHT22;2966;52.598;10.928;2023-03-14T04:27:22;10.10;99.90
5881;DHT22;2966;52.598;10.928;2023-03-14T04:29:50;10.00;99.90
5881;DHT22;2966;52.598;10.928;2023-03-14T04:32:17;10.00;99.90
5881;DHT22;2966;52.598;10.928;2023-03-14T04:34:43;10.00;99.90
5881;DHT22;2966;52.598;10.928;2023-03-14T04:37:10;10.00;99.90
5881;DHT22;2966;52.598;10.928;2023-03-14T04:39:37;10.00;99.90
5881;DHT22;2966;52.598;10.928;2023-03-14T04:42:04;9.90;99.90
5881;DHT22;2966;52.598;10.928;2023-03-14T04:44:31;9.80;99.90
5881;DHT22;2966;52.598;10.928;2023-03-14T04:46:59;9.80;99.90
5881;DHT22;2966;52.598;10.928;2023-03-14T04:49:26;9.90;99.90
5881;DHT22;2966;52.598;10.928;2023-03-14T04:51:52;9.90;99.90
5881;DHT22;2966;52.598;10.928;2023-03-14T04:54:19;9.90;99.90
5881;DHT22;2966;52.598;10.928;2023-03-14T04:56:46;9.90;99.90
5881;DHT22;2966;52.598;10.928;2023-03-14T04:59:12;10.00;99.90
5881;DHT22;2966;52.598;10.928;2023-03-14T05:01:39;9.90;99.90
5881;DHT22;2966;52.598;10.928;2023-03-14T05:04:07;10.00;99.90
5881;DHT22;2966;52.598;10.928;2023-03-14T05:06:34;9.90;99.90
5881;DHT22;2966;52.598;10.928;2023-03-14T05:09:01;9.90;99.90
5881;DHT22;2966;52.598;10.928;2023-03-14T05:11:30;9.90;99.90
5881;DHT22;2966;52.598;10.928;2023-03-14T05:13:58;9.90;99.90
5881;DHT22;2966;52.598;10.928;2023-03-14T05:16:24;10.00;99.90
5881;DHT22;2966;52.598;10.928;2023-03-14T05:18:51;9.90;99.90
5881;DHT22;2966;52.598;10.928;2023-03-14T05:21:19;9.90;99.90
5881;DHT22;2966;52.598;10.928;2023-03-14T05:23:46;9.80;99.90
5881;DHT22;2966;52.598;10.928;2023-03-14T05:26:12;9.70;99.90
5881;DHT22;2966;52.598;10.928;2023-03-14T05:28:42;9.60;99.90
5881;DHT22;2966;52.598;10.928;2023-03-14T05:31:09;9.60;99.90
5881;DHT22;2966;52.598;10.928;2023-03-14T05:33:36;9.50;99.90
5881;DHT22;2966;52.598;10.928;2023-03-14T05:36:03;9.50;99.90
5881;DHT22;2966;52.598;10.928;2023-03-14T05:38:31;9.40;99.90
5881;DHT22;2966;52.598;10.928;2023-03-14T05:40:58;9.40;99.90
5881;DHT22;2966;52.598;10.928;2023-03-14T05:43:26;9.40;99.90
5881;DHT22;2966;52.598;10.928;2023-03-14T05:45:56;9.30;99.90
5881;DHT22;2966;52.598;10.928;2023-03-14T05:48:23;9.30;99.90
5881;DHT22;2966;52.598;10.928;2023-03-14T05:50:54;9.20;99.90
5881;DHT22;2966;52.598;10.928;2023-03-14T05:53:21;9.30;99.90
5881;DHT22;2966;52.598;10.928;2023-03-14T05:55:52;9.20;99.90
5881;DHT22;2966;52.598;10.928;2023-03-14T05:58:22;9.20;99.90
5881;DHT22;2966;52.598;10.928;2023-03-14T06:00:54;9.20;99.90
5881;DHT22;2966;52.598;10.928;2023-03-14T06:03:22;9.20;99.90
5881;DHT22;2966;52.598;10.928;2023-03-14T06:05:50;9.20;99.90
5881;DHT22;2966;52.598;10.928;2023-03-14T06:08:17;9.20;99.90
5881;DHT22;2966;52.598;10.928;2023-03-14T06:10:44;9.20;99.90
5881;DHT22;2966;52.598;10.928;2023-03-14T06:13:12;9.20;99.90
5881;DHT22;2966;52.598;10.928;2023-03-14T06:15:38;9.20;99.90
5881;DHT22;2966;52.598;10.928;2023-03-14T06:18:05;9.10;99.90
5881;DHT22;2966;52.598;10.928;2023-03-14T06:20:32;9.10;99.90
5881;DHT22;2966;52.598;10.928;2023-03-14T06:23:00;9.10;99.90
5881;DHT22;2966;52.598;10.928;2023-03-14T06:25:27;9.10;99.90
5881;DHT22;2966;52.598;10.928;2023-03-14T06:27:54;9.10;99.90
5881;DHT22;2966;52.598;10.928;2023-03-14T06:30:22;9.10;99.90
5881;DHT22;2966;52.598;10.928;2023-03-14T06:32:49;9.10;99.90
5881;DHT22;2966;52.598;10.928;2023-03-14T06:35:16;9.10;99.90
5881;DHT22;2966;52.598;10.928;2023-03-14T06:37:45;9.20;99.90
5881;DHT22;2966;52.598;10.928;2023-03-14T06:40:12;9.20;99.90
5881;DHT22;2966;52.598;10.928;2023-03-14T06:42:42;9.30;99.90
5881;DHT22;2966;52.598;10.928;2023-03-14T06:45:09;9.40;99.90
5881;DHT22;2966;52.598;10.928;2023-03-14T06:47:37;9.50;99.90
5881;DHT22;2966;52.598;10.928;2023-03-14T06:50:05;9.50;99.90
5881;DHT22;2966;52.598;10.928;2023-03-14T06:52:32;9.50;99.90
5881;DHT22;2966;52.598;10.928;2023-03-14T06:55:02;9.50;99.90
5881;DHT22;2966;52.598;10.928;2023-03-14T06:57:29;9.40;99.90
5881;DHT22;2966;52.598;10.928;2023-03-14T06:59:59;9.40;99.90
5881;DHT22;2966;52.598;10.928;2023-03-14T07:02:25;9.50;99.90
5881;DHT22;2966;52.598;10.928;2023-03-14T07:04:54;9.60;99.90
5881;DHT22;2966;52.598;10.928;2023-03-14T07:07:23;9.70;99.90
5881;DHT22;2966;52.598;10.928;2023-03-14T07:09:49;9.80;99.90
5881;DHT22;2966;52.598;10.928;2023-03-14T07:12:19;9.80;99.90
5881;DHT22;2966;52.598;10.928;2023-03-14T07:14:46;9.90;99.90
5881;DHT22;2966;52.598;10.928;2023-03-14T07:17:13;10.10;99.90
5881;DHT22;2966;52.598;10.928;2023-03-14T07:19:40;10.30;99.90
5881;DHT22;2966;52.598;10.928;2023-03-14T07:22:08;10.40;99.90
5881;DHT22;2966;52.598;10.928;2023-03-14T07:24:34;10.50;99.90
5881;DHT22;2966;52.598;10.928;2023-03-14T07:27:01;10.50;99.90
5881;DHT22;2966;52.598;10.928;2023-03-14T07:29:28;10.60;99.90
5881;DHT22;2966;52.598;10.928;2023-03-14T07:31:55;10.60;99.90
5881;DHT22;2966;52.598;10.928;2023-03-14T07:34:21;10.70;99.90
5881;DHT22;2966;52.598;10.928;2023-03-14T07:36:48;10.90;99.90
5881;DHT22;2966;52.598;10.928;2023-03-14T07:39:16;11.10;99.90
5881;DHT22;2966;52.598;10.928;2023-03-14T07:41:43;11.30;99.90
5881;DHT22;2966;52.598;10.928;2023-03-14T07:44:09;11.50;99.90
5881;DHT22;2966;52.598;10.928;2023-03-14T07:46:36;11.40;99.90
5881;DHT22;2966;52.598;10.928;2023-03-14T07:49:03;11.40;99.90
5881;DHT22;2966;52.598;10.928;2023-03-14T07:51:30;11.40;99.90
5881;DHT22;2966;52.598;10.928;2023-03-14T07:53:57;11.40;99.90
5881;DHT22;2966;52.598;10.928;2023-03-14T07:56:25;11.40;99.90
5881;DHT22;2966;52.598;10.928;2023-03-14T07:58:52;11.20;99.90
5881;DHT22;2966;52.598;10.928;2023-03-14T08:01:18;11.20;99.90
5881;DHT22;2966;52.598;10.928;2023-03-14T08:03:48;11.30;99.90
5881;DHT22;2966;52.598;10.928;2023-03-14T08:06:15;11.40;99.90
5881;DHT22;2966;52.598;10.928;2023-03-14T08:08:41;11.50;99.90
5881;DHT22;2966;52.598;10.928;2023-03-14T08:11:08;11.40;99.90
5881;DHT22;2966;52.598;10.928;2023-03-14T08:13:36;11.50;99.90
5881;DHT22;2966;52.598;10.928;2023-03-14T08:16:04;11.30;99.90
5881;DHT22;2966;52.598;10.928;2023-03-14T08:18:31;11.20;99.90
5881;DHT22;2966;52.598;10.928;2023-03-14T08:20:58;11.00;99.90
5881;DHT22;2966;52.598;10.928;2023-03-14T08:23:25;11.00;99.90
5881;DHT22;2966;52.598;10.928;2023-03-14T08:25:51;10.90;99.90
5881;DHT22;2966;52.598;10.928;2023-03-14T08:28:18;10.90;99.90
5881;DHT22;2966;52.598;10.928;2023-03-14T08:30:46;11.00;99.90
5881;DHT22;2966;52.598;10.928;2023-03-14T08:33:13;11.20;99.90
5881;DHT22;2966;52.598;10.928;2023-03-14T08:35:40;11.30;99.90
5881;DHT22;2966;52.598;10.928;2023-03-14T08:38:06;11.40;99.90
5881;DHT22;2966;52.598;10.928;2023-03-14T08:40:33;11.30;99.90
5881;DHT22;2966;52.598;10.928;2023-03-14T08:43:00;11.30;99.90
5881;DHT22;2966;52.598;10.928;2023-03-14T08:45:26;11.30;99.90
5881;DHT22;2966;52.598;10.928;2023-03-14T08:47:55;11.40;99.90
5881;DHT22;2966;52.598;10.928;2023-03-14T08:50:21;11.50;99.90
5881;DHT22;2966;52.598;10.928;2023-03-14T08:52:49;11.60;99.90
5881;DHT22;2966;52.598;10.928;2023-03-14T08:55:16;11.70;99.90
5881;DHT22;2966;52.598;10.928;2023-03-14T08:57:43;11.50;99.90
5881;DHT22;2966;52.598;10.928;2023-03-14T09:00:11;11.50;99.90
5881;DHT22;2966;52.598;10.928;2023-03-14T09:02:40;11.60;99.90
5881;DHT22;2966;52.598;10.928;2023-03-14T09:05:10;11.50;99.90
5881;DHT22;2966;52.598;10.928;2023-03-14T09:07:37;11.50;99.90
5881;DHT22;2966;52.598;10.928;2023-03-14T09:10:05;11.40;99.90
5881;DHT22;2966;52.598;10.928;2023-03-14T09:12:32;11.30;99.90
5881;DHT22;2966;52.598;10.928;2023-03-14T09:14:59;11.20;99.90
5881;DHT22;2966;52.598;10.928;2023-03-14T09:17:26;11.10;99.90
5881;DHT22;2966;52.598;10.928;2023-03-14T09:19:53;11.00;99.90
5881;DHT22;2966;52.598;10.928;2023-03-14T09:22:24;10.90;99.90
5881;DHT22;2966;52.598;10.928;2023-03-14T09:24:51;10.60;99.90
5881;DHT22;2966;52.598;10.928;2023-03-14T09:27:18;10.40;99.90
5881;DHT22;2966;52.598;10.928;2023-03-14T09:29:45;10.20;99.90
5881;DHT22;2966;52.598;10.928;2023-03-14T09:32:11;10.20;99.90
5881;DHT22;2966;52.598;10.928;2023-03-14T09:34:38;10.30;99.90
5881;DHT22;2966;52.598;10.928;2023-03-14T09:37:05;10.20;99.90
5881;DHT22;2966;52.598;10.928;2023-03-14T09:39:33;10.30;99.90
5881;DHT22;2966;52.598;10.928;2023-03-14T09:42:03;10.20;99.90
5881;DHT22;2966;52.598;10.928;2023-03-14T09:44:32;10.20;99.90
5881;DHT22;2966;52.598;10.928;2023-03-14T09:47:03;10.30;99.90
5881;DHT22;2966;52.598;10.928;2023-03-14T09:49:33;10.40;99.90
5881;DHT22;2966;52.598;10.928;2023-03-14T09:52:02;10.40;99.90
5881;DHT22;2966;52.598;10.928;2023-03-14T09:54:34;10.40;99.90
5881;DHT22;2966;52.598;10.928;2023-03-14T09:57:02;10.40;99.90
5881;DHT22;2966;52.598;10.928;2023-03-14T09:59:29;10.30;99.90
5881;DHT22;2966;52.598;10.928;2023-03-14T10:01:58;10.40;99.90
5881;DHT22;2966;52.598;10.928;2023-03-14T10:04:27;10.60;99.90
5881;DHT22;2966;52.598;10.928;2023-03-14T10:06:55;10.90;99.90
5881;DHT22;2966;52.598;10.928;2023-03-14T10:09:23;11.00;99.90
5881;DHT22;2966;52.598;10.928;2023-03-14T10:11:54;11.20;99.90
5881;DHT22;2966;52.598;10.928;2023-03-14T10:14:30;11.30;99.90
5881;DHT22;2966;52.598;10.928;2023-03-14T10:17:05;11.40;99.90
5881;DHT22;2966;52.598;10.928;2023-03-14T10:19:34;11.50;99.90
5881;DHT22;2966;52.598;10.928;2023-03-14T10:22:01;11.70;99.90
5881;DHT22;2966;52.598;10.928;2023-03-14T10:24:30;11.90;99.90
5881;DHT22;2966;52.598;10.928;2023-03-14T10:27:01;12.00;99.90
5881;DHT22;2966;52.598;10.928;2023-03-14T10:29:29;12.10;99.90
5881;DHT22;2966;52.598;10.928;2023-03-14T10:31:59;12.10;99.90
5881;DHT22;2966;52.598;10.928;2023-03-14T10:34:29;12.10;99.90
5881;DHT22;2966;52.598;10.928;2023-03-14T10:36:58;11.90;99.90
5881;DHT22;2966;52.598;10.928;2023-03-14T10:39:40;11.90;99.90
5881;DHT22;2966;52.598;10.928;2023-03-14T10:42:17;11.90;99.90
5881;DHT22;2966;52.598;10.928;2023-03-14T10:44:46;11.70;99.90
5881;DHT22;2966;52.598;10.928;2023-03-14T10:47:18;11.70;99.90
5881;DHT22;2966;52.598;10.928;2023-03-14T10:49:46;11.80;99.90
5881;DHT22;2966;52.598;10.928;2023-03-14T10:52:17;11.70;99.90
5881;DHT22;2966;52.598;10.928;2023-03-14T10:54:47;11.70;99.90
5881;DHT22;2966;52.598;10.928;2023-03-14T10:57:21;11.60;99.90
5881;DHT22;2966;52.598;10.928;2023-03-14T10:59:48;11.60;99.90
5881;DHT22;2966;52.598;10.928;2023-03-14T11:02:28;11.50;99.90
5881;DHT22;2966;52.598;10.928;2023-03-14T11:05:07;11.60;99.90
5881;DHT22;2966;52.598;10.928;2023-03-14T11:07:40;12.00;99.90
5881;DHT22;2966;52.598;10.928;2023-03-14T11:10:17;12.20;99.90
5881;DHT22;2966;52.598;10.928;2023-03-14T11:12:54;12.70;99.90
5881;DHT22;2966;52.598;10.928;2023-03-14T11:15:34;12.90;99.90
5881;DHT22;2966;52.598;10.928;2023-03-14T11:18:21;12.90;99.90
5881;DHT22;2966;52.598;10.928;2023-03-14T11:20:53;13.30;99.90
5881;DHT22;2966;52.598;10.928;2023-03-14T11:23:25;13.20;99.90
5881;DHT22;2966;52.598;10.928;2023-03-14T11:26:09;13.10;99.90
5881;DHT22;2966;52.598;10.928;2023-03-14T11:28:44;13.10;99.90
5881;DHT22;2966;52.598;10.928;2023-03-14T11:31:17;13.60;99.90
5881;DHT22;2966;52.598;10.928;2023-03-14T11:33:50;13.40;99.90
5881;DHT22;2966;52.598;10.928;2023-03-14T11:36:24;13.10;99.90
5881;DHT22;2966;52.598;10.928;2023-03-14T11:38:56;12.50;99.90
5881;DHT22;2966;52.598;10.928;2023-03-14T11:41:27;12.20;99.90
5881;DHT22;2966;52.598;10.928;2023-03-14T11:43:59;12.20;99.90
5881;DHT22;2966;52.598;10.928;2023-03-14T11:46:29;12.10;99.90
5881;DHT22;2966;52.598;10.928;2023-03-14T11:49:05;12.10;99.90
5881;DHT22;2966;52.598;10.928;2023-03-14T11:51:35;12.00;99.90
5881;DHT22;2966;52.598;10.928;2023-03-14T11:54:08;12.10;99.90
5881;DHT22;2966;52.598;10.928;2023-03-14T11:56:44;12.20;99.90
5881;DHT22;2966;52.598;10.928;2023-03-14T11:59:16;12.40;99.90
5881;DHT22;2966;52.598;10.928;2023-03-14T12:01:57;12.40;99.90
5881;DHT22;2966;52.598;10.928;2023-03-14T12:04:35;12.50;99.90
5881;DHT22;2966;52.598;10.928;2023-03-14T12:07:13;12.50;99.90
5881;DHT22;2966;52.598;10.928;2023-03-14T12:09:44;12.80;99.90
5881;DHT22;2966;52.598;10.928;2023-03-14T12:12:13;13.20;99.90
5881;DHT22;2966;52.598;10.928;2023-03-14T12:14:51;13.60;99.90
5881;DHT22;2966;52.598;10.928;2023-03-14T12:17:20;13.70;99.90
5881;DHT22;2966;52.598;10.928;2023-03-14T12:19:48;13.60;99.90
5881;DHT22;2966;52.598;10.928;2023-03-14T12:22:27;13.30;99.90
5881;DHT22;2966;52.598;10.928;2023-03-14T12:25:03;13.00;99.90
5881;DHT22;2966;52.598;10.928;2023-03-14T12:27:46;12.80;99.90
5881;DHT22;2966;52.598;10.928;2023-03-14T12:30:25;12.50;99.90
5881;DHT22;2966;52.598;10.928;2023-03-14T12:38:56;7.30;99.90
5881;DHT22;2966;52.598;10.928;2023-03-14T12:41:27;7.20;99.90
5881;DHT22;2966;52.598;10.928;2023-03-14T12:43:56;7.20;99.90
5881;DHT22;2966;52.598;10.928;2023-03-14T12:46:25;7.20;99.90
5881;DHT22;2966;52.598;10.928;2023-03-14T12:48:56;7.10;99.90
5881;DHT22;2966;52.598;10.928;2023-03-14T12:51:34;7.00;99.90
5881;DHT22;2966;52.598;10.928;2023-03-14T12:54:27;6.60;99.90
5881;DHT22;2966;52.598;10.928;2023-03-14T12:57:09;6.50;99.90
5881;DHT22;2966;52.598;10.928;2023-03-14T12:59:46;6.20;99.90
5881;DHT22;2966;52.598;10.928;2023-03-14T13:02:21;6.00;99.90
5881;DHT22;2966;52.598;10.928;2023-03-14T13:04:51;5.90;99.90
5881;DHT22;2966;52.598;10.928;2023-03-14T13:07:34;5.60;99.90
5881;DHT22;2966;52.598;10.928;2023-03-14T13:10:19;5.40;99.90
5881;DHT22;2966;52.598;10.928;2023-03-14T13:12:52;5.30;99.90
5881;DHT22;2966;52.598;10.928;2023-03-14T13:15:27;5.00;99.90
5881;DHT22;2966;52.598;10.928;2023-03-14T13:18:00;4.90;99.90
5881;DHT22;2966;52.598;10.928;2023-03-14T13:20:30;4.90;99.90
5881;DHT22;2966;52.598;10.928;2023-03-14T13:22:58;4.90;99.90
5881;DHT22;2966;52.598;10.928;2023-03-14T13:25:29;4.80;99.90
5881;DHT22;2966;52.598;10.928;2023-03-14T13:27:56;4.70;99.90
5881;DHT22;2966;52.598;10.928;2023-03-14T13:30:25;4.70;99.90
5881;DHT22;2966;52.598;10.928;2023-03-14T13:32:54;4.60;99.90
5881;DHT22;2966;52.598;10.928;2023-03-14T13:35:26;4.60;99.90
5881;DHT22;2966;52.598;10.928;2023-03-14T13:37:55;4.50;99.90
5881;DHT22;2966;52.598;10.928;2023-03-14T13:40:26;4.50;99.90
5881;DHT22;2966;52.598;10.928;2023-03-14T13:43:14;4.60;99.90
5881;DHT22;2966;52.598;10.928;2023-03-14T13:45:44;4.50;99.90
5881;DHT22;2966;52.598;10.928;2023-03-14T13:48:12;4.50;99.90
5881;DHT22;2966;52.598;10.928;2023-03-14T13:50:46;4.50;99.90
5881;DHT22;2966;52.598;10.928;2023-03-14T13:53:15;4.60;99.90
5881;DHT22;2966;52.598;10.928;2023-03-14T13:55:42;4.50;99.90
5881;DHT22;2966;52.598;10.928;2023-03-14T13:58:20;4.30;99.90
5881;DHT22;2966;52.598;10.928;2023-03-14T14:00:55;4.20;99.90
5881;DHT22;2966;52.598;10.928;2023-03-14T14:03:23;3.80;99.90
5881;DHT22;2966;52.598;10.928;2023-03-14T14:05:52;3.70;99.90
5881;DHT22;2966;52.598;10.928;2023-03-14T14:08:20;3.70;99.90
5881;DHT22;2966;52.598;10.928;2023-03-14T14:10:48;3.70;99.90
5881;DHT22;2966;52.598;10.928;2023-03-14T14:13:17;3.80;99.90
5881;DHT22;2966;52.598;10.928;2023-03-14T14:15:47;3.90;99.90
5881;DHT22;2966;52.598;10.928;2023-03-14T14:18:17;3.90;99.90
5881;DHT22;2966;52.598;10.928;2023-03-14T14:20:46;3.90;99.90
5881;DHT22;2966;52.598;10.928;2023-03-14T14:23:18;3.80;99.90
5881;DHT22;2966;52.598;10.928;2023-03-14T14:25:50;4.00;99.90
5881;DHT22;2966;52.598;10.928;2023-03-14T14:28:23;4.00;99.90
5881;DHT22;2966;52.598;10.928;2023-03-14T14:31:00;4.00;99.90
5881;DHT22;2966;52.598;10.928;2023-03-14T14:33:27;4.00;99.90
5881;DHT22;2966;52.598;10.928;2023-03-14T14:35:57;4.00;99.90
5881;DHT22;2966;52.598;10.928;2023-03-14T14:38:26;3.90;99.90
5881;DHT22;2966;52.598;10.928;2023-03-14T14:40:54;3.90;99.90
5881;DHT22;2966;52.598;10.928;2023-03-14T14:43:24;4.00;99.90
5881;DHT22;2966;52.598;10.928;2023-03-14T14:45:53;3.90;99.90
5881;DHT22;2966;52.598;10.928;2023-03-14T14:48:23;3.90;99.90
5881;DHT22;2966;52.598;10.928;2023-03-14T14:50:55;3.90;99.90
5881;DHT22;2966;52.598;10.928;2023-03-14T14:53:26;3.90;99.90
5881;DHT22;2966;52.598;10.928;2023-03-14T14:55:56;3.90;99.90
5881;DHT22;2966;52.598;10.928;2023-03-14T14:58:25;3.90;99.90
5881;DHT22;2966;52.598;10.928;2023-03-14T15:00:56;4.10;99.90
5881;DHT22;2966;52.598;10.928;2023-03-14T15:03:26;4.10;99.90
5881;DHT22;2966;52.598;10.928;2023-03-14T15:05:54;4.10;99.90
5881;DHT22;2966;52.598;10.928;2023-03-14T15:08:21;4.10;99.90
5881;DHT22;2966;52.598;10.928;2023-03-14T15:10:48;4.30;99.90
5881;DHT22;2966;52.598;10.928;2023-03-14T15:13:16;4.30;99.90
5881;DHT22;2966;52.598;10.928;2023-03-14T15:15:43;4.30;99.90
5881;DHT22;2966;52.598;10.928;2023-03-14T15:18:13;4.30;99.90
5881;DHT22;2966;52.598;10.928;2023-03-14T15:20:41;4.30;99.90
5881;DHT22;2966;52.598;10.928;2023-03-14T15:23:11;4.30;99.90
5881;DHT22;2966;52.598;10.928;2023-03-14T15:25:37;4.30;99.90
5881;DHT22;2966;52.598;10.928;2023-03-14T15:28:13;4.40;99.90
5881;DHT22;2966;52.598;10.928;2023-03-14T15:30:43;4.30;99.90
5881;DHT22;2966;52.598;10.928;2023-03-14T15:33:10;4.40;99.90
5881;DHT22;2966;52.598;10.928;2023-03-14T15:35:37;4.30;99.90
5881;DHT22;2966;52.598;10.928;2023-03-14T15:38:04;4.40;99.90
5881;DHT22;2966;52.598;10.928;2023-03-14T15:40:31;4.30;99.90
5881;DHT22;2966;52.598;10.928;2023-03-14T15:42:58;4.40;99.90
5881;DHT22;2966;52.598;10.928;2023-03-14T15:45:24;4.30;99.90
5881;DHT22;2966;52.598;10.928;2023-03-14T15:47:53;4.30;99.90
5881;DHT22;2966;52.598;10.928;2023-03-14T15:50:20;4.30;99.90
5881;DHT22;2966;52.598;10.928;2023-03-14T15:52:47;4.30;99.90
5881;DHT22;2966;52.598;10.928;2023-03-14T15:55:14;4.30;99.90
5881;DHT22;2966;52.598;10.928;2023-03-14T15:57:43;4.30;99.90
5881;DHT22;2966;52.598;10.928;2023-03-14T16:00:13;4.30;99.90
5881;DHT22;2966;52.598;10.928;2023-03-14T16:02:41;4.30;99.90
5881;DHT22;2966;52.598;10.928;2023-03-14T16:05:10;4.30;99.90
5881;DHT22;2966;52.598;10.928;2023-03-14T16:07:37;4.30;99.90
5881;DHT22;2966;52.598;10.928;2023-03-14T16:10:06;4.30;99.90